Alpha, Ohio
Current Conditions -  °F | °C
As of 1:58 PM on Friday 31 Oct 2014 (Local Time) from KFFO Reporting Station
Drizzle Drizzle  
Wind Chill:   Ceiling: 1200
Heat Index:   Visibility: 10mi
Dew Point:   Wind: 9mph
Humidity: 93%   Direction: 310°NW
Pressure: 29.9"   Gusts: NA
Location:  39.71°N, 84.02°W
Report Text: KFFO 311758Z 31008KT 10SM DZ SCT008 BKN012 BKN018 05/04 A2990 RMK AO2A SLP133 P0003 60003 57011
Loading
Personal Weather Stations






























Interactive Weather Map New forecast layout! Learn more

10-Day Weather Forecast

Advertisements
Track Severe Weather on mobile